sensor_id;sensor_type;location;lat;lon;timestamp;temperature;humidity
24252;DHT22;12380;51.118;4.176;2023-11-19T00:00:31;14.20;99.90
24252;DHT22;12380;51.118;4.176;2023-11-19T00:02:57;14.20;99.90
24252;DHT22;12380;51.118;4.176;2023-11-19T00:05:22;14.20;99.90
24252;DHT22;12380;51.118;4.176;2023-11-19T00:07:48;14.20;99.90
24252;DHT22;12380;51.118;4.176;2023-11-19T00:10:14;14.10;99.90
24252;DHT22;12380;51.118;4.176;2023-11-19T00:12:44;14.10;99.90
24252;DHT22;12380;51.118;4.176;2023-11-19T00:15:10;14.10;99.90
24252;DHT22;12380;51.118;4.176;2023-11-19T00:17:42;14.10;99.90
24252;DHT22;12380;51.118;4.176;2023-11-19T00:20:14;14.10;99.90
24252;DHT22;12380;51.118;4.176;2023-11-19T00:22:40;14.00;99.90
24252;DHT22;12380;51.118;4.176;2023-11-19T00:25:07;14.00;99.90
24252;DHT22;12380;51.118;4.176;2023-11-19T00:27:33;14.10;99.90
24252;DHT22;12380;51.118;4.176;2023-11-19T00:29:58;14.10;99.90
24252;DHT22;12380;51.118;4.176;2023-11-19T00:32:24;14.10;99.90
24252;DHT22;12380;51.118;4.176;2023-11-19T00:34:49;14.10;99.90
24252;DHT22;12380;51.118;4.176;2023-11-19T00:37:15;14.00;99.90
24252;DHT22;12380;51.118;4.176;2023-11-19T00:39:41;14.00;99.90
24252;DHT22;12380;51.118;4.176;2023-11-19T00:42:07;14.00;99.90
24252;DHT22;12380;51.118;4.176;2023-11-19T00:44:35;14.10;99.90
24252;DHT22;12380;51.118;4.176;2023-11-19T00:47:01;14.10;99.90
24252;DHT22;12380;51.118;4.176;2023-11-19T00:49:29;14.00;99.90
24252;DHT22;12380;51.118;4.176;2023-11-19T00:51:55;14.10;99.90
24252;DHT22;12380;51.118;4.176;2023-11-19T00:54:24;14.10;99.90
24252;DHT22;12380;51.118;4.176;2023-11-19T00:56:51;14.00;99.90
24252;DHT22;12380;51.118;4.176;2023-11-19T00:59:17;13.90;99.90
24252;DHT22;12380;51.118;4.176;2023-11-19T01:01:43;13.80;99.90
24252;DHT22;12380;51.118;4.176;2023-11-19T01:04:08;13.80;99.90
24252;DHT22;12380;51.118;4.176;2023-11-19T01:06:34;14.00;99.90
24252;DHT22;12380;51.118;4.176;2023-11-19T01:09:00;13.90;99.90
24252;DHT22;12380;51.118;4.176;2023-11-19T01:11:27;13.80;99.90
24252;DHT22;12380;51.118;4.176;2023-11-19T01:13:53;13.80;99.90
24252;DHT22;12380;51.118;4.176;2023-11-19T01:16:21;13.90;99.90
24252;DHT22;12380;51.118;4.176;2023-11-19T01:18:48;13.90;99.90
24252;DHT22;12380;51.118;4.176;2023-11-19T01:21:14;13.90;99.90
24252;DHT22;12380;51.118;4.176;2023-11-19T01:23:40;13.90;99.90
24252;DHT22;12380;51.118;4.176;2023-11-19T01:26:08;13.70;99.90
24252;DHT22;12380;51.118;4.176;2023-11-19T01:28:35;13.70;99.90
24252;DHT22;12380;51.118;4.176;2023-11-19T01:31:01;13.80;99.90
24252;DHT22;12380;51.118;4.176;2023-11-19T01:33:26;13.90;99.90
24252;DHT22;12380;51.118;4.176;2023-11-19T01:35:53;13.70;99.90
24252;DHT22;12380;51.118;4.176;2023-11-19T01:38:19;13.70;99.90
24252;DHT22;12380;51.118;4.176;2023-11-19T01:40:44;13.70;99.90
24252;DHT22;12380;51.118;4.176;2023-11-19T01:43:10;13.70;99.90
24252;DHT22;12380;51.118;4.176;2023-11-19T01:45:43;13.70;99.90
24252;DHT22;12380;51.118;4.176;2023-11-19T01:48:09;13.70;99.90
24252;DHT22;12380;51.118;4.176;2023-11-19T01:50:36;13.70;99.90
24252;DHT22;12380;51.118;4.176;2023-11-19T01:53:02;13.40;99.90
24252;DHT22;12380;51.118;4.176;2023-11-19T01:55:28;13.40;99.90
24252;DHT22;12380;51.118;4.176;2023-11-19T01:57:53;13.40;99.90
24252;DHT22;12380;51.118;4.176;2023-11-19T02:00:20;13.30;99.90
24252;DHT22;12380;51.118;4.176;2023-11-19T02:02:46;13.20;99.90
24252;DHT22;12380;51.118;4.176;2023-11-19T02:05:13;13.20;99.90
24252;DHT22;12380;51.118;4.176;2023-11-19T02:07:39;13.20;99.90
24252;DHT22;12380;51.118;4.176;2023-11-19T02:10:05;13.30;99.90
24252;DHT22;12380;51.118;4.176;2023-11-19T02:12:32;13.20;99.90
24252;DHT22;12380;51.118;4.176;2023-11-19T02:15:01;13.20;99.90
24252;DHT22;12380;51.118;4.176;2023-11-19T02:17:28;13.20;99.90
24252;DHT22;12380;51.118;4.176;2023-11-19T02:19:57;13.10;99.90
24252;DHT22;12380;51.118;4.176;2023-11-19T02:22:22;13.20;99.90
24252;DHT22;12380;51.118;4.176;2023-11-19T02:24:51;13.30;99.90
24252;DHT22;12380;51.118;4.176;2023-11-19T02:27:22;13.30;99.90
24252;DHT22;12380;51.118;4.176;2023-11-19T02:29:54;13.30;99.90
24252;DHT22;12380;51.118;4.176;2023-11-19T02:32:22;13.40;99.90
24252;DHT22;12380;51.118;4.176;2023-11-19T02:34:52;13.20;99.90
24252;DHT22;12380;51.118;4.176;2023-11-19T02:37:18;13.10;99.90
24252;DHT22;12380;51.118;4.176;2023-11-19T02:39:44;13.20;99.90
24252;DHT22;12380;51.118;4.176;2023-11-19T02:42:10;13.10;99.90
24252;DHT22;12380;51.118;4.176;2023-11-19T02:44:36;13.20;99.90
24252;DHT22;12380;51.118;4.176;2023-11-19T02:47:01;13.10;99.90
24252;DHT22;12380;51.118;4.176;2023-11-19T02:49:29;13.10;99.90
24252;DHT22;12380;51.118;4.176;2023-11-19T02:51:54;13.20;99.90
24252;DHT22;12380;51.118;4.176;2023-11-19T02:54:20;13.20;99.90
24252;DHT22;12380;51.118;4.176;2023-11-19T02:56:48;13.20;99.90
24252;DHT22;12380;51.118;4.176;2023-11-19T02:59:20;13.20;99.90
24252;DHT22;12380;51.118;4.176;2023-11-19T03:01:52;13.30;99.90
24252;DHT22;12380;51.118;4.176;2023-11-19T03:04:18;13.40;99.90
24252;DHT22;12380;51.118;4.176;2023-11-19T03:06:45;13.40;99.90
24252;DHT22;12380;51.118;4.176;2023-11-19T03:09:13;13.40;99.90
24252;DHT22;12380;51.118;4.176;2023-11-19T03:11:39;13.40;99.90
24252;DHT22;12380;51.118;4.176;2023-11-19T03:14:04;13.40;99.90
24252;DHT22;12380;51.118;4.176;2023-11-19T03:16:30;13.20;99.90
24252;DHT22;12380;51.118;4.176;2023-11-19T03:18:56;13.20;99.90
24252;DHT22;12380;51.118;4.176;2023-11-19T03:21:30;13.30;99.90
24252;DHT22;12380;51.118;4.176;2023-11-19T03:23:59;13.40;99.90
24252;DHT22;12380;51.118;4.176;2023-11-19T03:26:26;13.20;99.90
24252;DHT22;12380;51.118;4.176;2023-11-19T03:28:52;13.10;99.90
24252;DHT22;12380;51.118;4.176;2023-11-19T03:31:18;13.10;99.90
24252;DHT22;12380;51.118;4.176;2023-11-19T03:33:45;13.10;99.90
24252;DHT22;12380;51.118;4.176;2023-11-19T03:36:10;13.20;99.90
24252;DHT22;12380;51.118;4.176;2023-11-19T03:38:36;13.20;99.90
24252;DHT22;12380;51.118;4.176;2023-11-19T03:41:09;13.30;99.90
24252;DHT22;12380;51.118;4.176;2023-11-19T03:43:35;13.20;99.90
24252;DHT22;12380;51.118;4.176;2023-11-19T03:46:00;13.30;99.90
24252;DHT22;12380;51.118;4.176;2023-11-19T03:48:26;13.30;99.90
24252;DHT22;12380;51.118;4.176;2023-11-19T03:50:51;13.20;99.90
24252;DHT22;12380;51.118;4.176;2023-11-19T03:53:17;13.00;99.90
24252;DHT22;12380;51.118;4.176;2023-11-19T03:55:44;12.90;99.90
24252;DHT22;12380;51.118;4.176;2023-11-19T03:58:09;13.10;99.90
24252;DHT22;12380;51.118;4.176;2023-11-19T04:00:35;13.00;99.90
24252;DHT22;12380;51.118;4.176;2023-11-19T04:03:00;12.90;99.90
24252;DHT22;12380;51.118;4.176;2023-11-19T04:05:26;12.90;99.90
24252;DHT22;12380;51.118;4.176;2023-11-19T04:07:51;12.80;99.90
24252;DHT22;12380;51.118;4.176;2023-11-19T04:10:19;12.60;99.90
24252;DHT22;12380;51.118;4.176;2023-11-19T04:12:47;12.70;99.90
24252;DHT22;12380;51.118;4.176;2023-11-19T04:15:14;12.60;99.90
24252;DHT22;12380;51.118;4.176;2023-11-19T04:17:39;12.60;99.90
24252;DHT22;12380;51.118;4.176;2023-11-19T04:20:05;12.60;99.90
24252;DHT22;12380;51.118;4.176;2023-11-19T04:22:31;12.60;99.90
24252;DHT22;12380;51.118;4.176;2023-11-19T04:24:59;12.50;99.90
24252;DHT22;12380;51.118;4.176;2023-11-19T04:27:24;12.50;99.90
24252;DHT22;12380;51.118;4.176;2023-11-19T04:29:50;12.50;99.90
24252;DHT22;12380;51.118;4.176;2023-11-19T04:32:16;12.40;99.90
24252;DHT22;12380;51.118;4.176;2023-11-19T04:34:44;12.40;99.90
24252;DHT22;12380;51.118;4.176;2023-11-19T04:37:10;12.40;99.90
24252;DHT22;12380;51.118;4.176;2023-11-19T04:39:35;12.40;99.90
24252;DHT22;12380;51.118;4.176;2023-11-19T04:42:02;12.40;99.90
24252;DHT22;12380;51.118;4.176;2023-11-19T04:44:28;12.40;99.90
24252;DHT22;12380;51.118;4.176;2023-11-19T04:46:54;12.30;99.90
24252;DHT22;12380;51.118;4.176;2023-11-19T04:49:20;12.20;99.90
24252;DHT22;12380;51.118;4.176;2023-11-19T04:51:46;12.20;99.90
24252;DHT22;12380;51.118;4.176;2023-11-19T04:54:14;12.20;99.90
24252;DHT22;12380;51.118;4.176;2023-11-19T04:56:40;12.20;99.90
24252;DHT22;12380;51.118;4.176;2023-11-19T04:59:08;12.30;99.90
24252;DHT22;12380;51.118;4.176;2023-11-19T05:01:34;12.20;99.90
24252;DHT22;12380;51.118;4.176;2023-11-19T05:04:00;12.10;99.90
24252;DHT22;12380;51.118;4.176;2023-11-19T05:06:29;12.10;99.90
24252;DHT22;12380;51.118;4.176;2023-11-19T05:08:55;12.00;99.90
24252;DHT22;12380;51.118;4.176;2023-11-19T05:11:21;12.10;99.90
24252;DHT22;12380;51.118;4.176;2023-11-19T05:13:49;12.00;99.90
24252;DHT22;12380;51.118;4.176;2023-11-19T05:16:15;12.00;99.90
24252;DHT22;12380;51.118;4.176;2023-11-19T05:18:41;12.00;99.90
24252;DHT22;12380;51.118;4.176;2023-11-19T05:21:06;12.10;99.90
24252;DHT22;12380;51.118;4.176;2023-11-19T05:23:32;12.00;99.90
24252;DHT22;12380;51.118;4.176;2023-11-19T05:26:01;12.00;99.90
24252;DHT22;12380;51.118;4.176;2023-11-19T05:28:27;11.90;99.90
24252;DHT22;12380;51.118;4.176;2023-11-19T05:30:52;11.80;99.90
24252;DHT22;12380;51.118;4.176;2023-11-19T05:33:18;11.80;99.90
24252;DHT22;12380;51.118;4.176;2023-11-19T05:35:43;11.70;99.90
24252;DHT22;12380;51.118;4.176;2023-11-19T05:38:09;11.80;99.90
24252;DHT22;12380;51.118;4.176;2023-11-19T05:40:35;11.80;99.90
24252;DHT22;12380;51.118;4.176;2023-11-19T05:43:00;11.90;99.90
24252;DHT22;12380;51.118;4.176;2023-11-19T05:45:26;12.10;99.90
24252;DHT22;12380;51.118;4.176;2023-11-19T05:47:52;12.10;99.90
24252;DHT22;12380;51.118;4.176;2023-11-19T05:50:18;12.10;99.90
24252;DHT22;12380;51.118;4.176;2023-11-19T05:52:43;12.10;99.90
24252;DHT22;12380;51.118;4.176;2023-11-19T05:55:09;12.00;99.90
24252;DHT22;12380;51.118;4.176;2023-11-19T05:57:38;12.00;99.90
24252;DHT22;12380;51.118;4.176;2023-11-19T06:00:05;12.10;99.90
24252;DHT22;12380;51.118;4.176;2023-11-19T06:02:35;12.00;99.90
24252;DHT22;12380;51.118;4.176;2023-11-19T06:05:02;12.10;99.90
24252;DHT22;12380;51.118;4.176;2023-11-19T06:07:30;12.10;99.90
24252;DHT22;12380;51.118;4.176;2023-11-19T06:09:56;12.00;99.90
24252;DHT22;12380;51.118;4.176;2023-11-19T06:12:22;12.00;99.90
24252;DHT22;12380;51.118;4.176;2023-11-19T06:14:47;12.20;99.90
24252;DHT22;12380;51.118;4.176;2023-11-19T06:17:15;12.20;99.90
24252;DHT22;12380;51.118;4.176;2023-11-19T06:19:41;12.10;99.90
24252;DHT22;12380;51.118;4.176;2023-11-19T06:22:06;12.00;99.90
24252;DHT22;12380;51.118;4.176;2023-11-19T06:24:34;12.10;99.90
24252;DHT22;12380;51.118;4.176;2023-11-19T06:27:00;12.10;99.90
24252;DHT22;12380;51.118;4.176;2023-11-19T06:29:25;11.90;99.90
24252;DHT22;12380;51.118;4.176;2023-11-19T06:31:51;11.90;99.90
24252;DHT22;12380;51.118;4.176;2023-11-19T06:34:16;11.90;99.90
24252;DHT22;12380;51.118;4.176;2023-11-19T06:36:42;12.00;99.90
24252;DHT22;12380;51.118;4.176;2023-11-19T06:39:10;12.00;99.90
24252;DHT22;12380;51.118;4.176;2023-11-19T06:41:36;11.90;99.90
24252;DHT22;12380;51.118;4.176;2023-11-19T06:44:03;11.90;99.90
24252;DHT22;12380;51.118;4.176;2023-11-19T06:46:30;11.90;99.90
24252;DHT22;12380;51.118;4.176;2023-11-19T06:48:56;11.90;99.90
24252;DHT22;12380;51.118;4.176;2023-11-19T06:51:22;11.80;99.90
24252;DHT22;12380;51.118;4.176;2023-11-19T06:53:47;11.60;99.90
24252;DHT22;12380;51.118;4.176;2023-11-19T06:56:23;11.60;99.90
24252;DHT22;12380;51.118;4.176;2023-11-19T06:58:49;11.70;99.90
24252;DHT22;12380;51.118;4.176;2023-11-19T07:01:15;11.70;99.90
24252;DHT22;12380;51.118;4.176;2023-11-19T07:03:41;11.60;99.90
24252;DHT22;12380;51.118;4.176;2023-11-19T07:06:07;11.80;99.90
24252;DHT22;12380;51.118;4.176;2023-11-19T07:08:35;11.70;99.90
24252;DHT22;12380;51.118;4.176;2023-11-19T07:11:04;11.80;99.90
24252;DHT22;12380;51.118;4.176;2023-11-19T07:13:29;11.60;99.90
24252;DHT22;12380;51.118;4.176;2023-11-19T07:15:58;11.60;99.90
24252;DHT22;12380;51.118;4.176;2023-11-19T07:18:23;11.70;99.90
24252;DHT22;12380;51.118;4.176;2023-11-19T07:20:49;11.60;99.90
24252;DHT22;12380;51.118;4.176;2023-11-19T07:23:14;11.80;99.90
24252;DHT22;12380;51.118;4.176;2023-11-19T07:25:44;11.80;99.90
24252;DHT22;12380;51.118;4.176;2023-11-19T07:28:13;11.80;99.90
24252;DHT22;12380;51.118;4.176;2023-11-19T07:30:42;11.80;99.90
24252;DHT22;12380;51.118;4.176;2023-11-19T07:33:07;11.80;99.90
24252;DHT22;12380;51.118;4.176;2023-11-19T07:35:33;12.00;99.90
24252;DHT22;12380;51.118;4.176;2023-11-19T07:37:59;12.10;99.90
24252;DHT22;12380;51.118;4.176;2023-11-19T07:40:24;12.10;99.90
24252;DHT22;12380;51.118;4.176;2023-11-19T07:42:50;12.10;99.90
24252;DHT22;12380;51.118;4.176;2023-11-19T07:45:20;12.10;99.90
24252;DHT22;12380;51.118;4.176;2023-11-19T07:47:45;12.20;99.90
24252;DHT22;12380;51.118;4.176;2023-11-19T07:50:11;12.30;99.90
24252;DHT22;12380;51.118;4.176;2023-11-19T07:52:39;12.40;99.90
24252;DHT22;12380;51.118;4.176;2023-11-19T07:55:05;12.40;99.90
24252;DHT22;12380;51.118;4.176;2023-11-19T07:57:31;12.30;99.90
24252;DHT22;12380;51.118;4.176;2023-11-19T07:59:57;12.20;99.90
24252;DHT22;12380;51.118;4.176;2023-11-19T08:02:22;12.20;99.90
24252;DHT22;12380;51.118;4.176;2023-11-19T08:04:49;12.20;99.90
24252;DHT22;12380;51.118;4.176;2023-11-19T08:07:20;12.40;99.90
24252;DHT22;12380;51.118;4.176;2023-11-19T08:09:48;12.50;99.90
24252;DHT22;12380;51.118;4.176;2023-11-19T08:12:18;12.50;99.90
24252;DHT22;12380;51.118;4.176;2023-11-19T08:14:43;12.70;99.90
24252;DHT22;12380;51.118;4.176;2023-11-19T08:17:09;12.80;99.90
24252;DHT22;12380;51.118;4.176;2023-11-19T08:19:35;12.90;99.90
24252;DHT22;12380;51.118;4.176;2023-11-19T08:22:00;12.80;99.90
24252;DHT22;12380;51.118;4.176;2023-11-19T08:24:26;12.90;99.90
24252;DHT22;12380;51.118;4.176;2023-11-19T08:26:54;13.10;99.90
24252;DHT22;12380;51.118;4.176;2023-11-19T08:29:19;13.40;99.90
24252;DHT22;12380;51.118;4.176;2023-11-19T08:31:45;13.60;99.90
24252;DHT22;12380;51.118;4.176;2023-11-19T08:34:11;13.70;99.90
24252;DHT22;12380;51.118;4.176;2023-11-19T08:36:41;14.20;99.90
24252;DHT22;12380;51.118;4.176;2023-11-19T08:39:06;14.30;99.90
24252;DHT22;12380;51.118;4.176;2023-11-19T08:41:33;14.50;99.90
24252;DHT22;12380;51.118;4.176;2023-11-19T08:43:59;14.80;99.90
24252;DHT22;12380;51.118;4.176;2023-11-19T08:46:25;14.90;99.90
24252;DHT22;12380;51.118;4.176;2023-11-19T08:48:51;15.10;99.90
24252;DHT22;12380;51.118;4.176;2023-11-19T08:51:17;15.10;99.90
24252;DHT22;12380;51.118;4.176;2023-11-19T08:53:42;15.20;99.90
24252;DHT22;12380;51.118;4.176;2023-11-19T08:56:10;15.30;99.90
24252;DHT22;12380;51.118;4.176;2023-11-19T08:58:36;15.50;99.90
24252;DHT22;12380;51.118;4.176;2023-11-19T09:01:01;15.40;99.90
24252;DHT22;12380;51.118;4.176;2023-11-19T09:03:27;15.50;99.90
24252;DHT22;12380;51.118;4.176;2023-11-19T09:05:54;15.50;99.90
24252;DHT22;12380;51.118;4.176;2023-11-19T09:08:19;15.60;99.90
24252;DHT22;12380;51.118;4.176;2023-11-19T09:10:45;15.20;99.90
24252;DHT22;12380;51.118;4.176;2023-11-19T09:13:11;15.40;99.90
24252;DHT22;12380;51.118;4.176;2023-11-19T09:15:36;15.70;99.90
24252;DHT22;12380;51.118;4.176;2023-11-19T09:18:02;15.70;99.90
24252;DHT22;12380;51.118;4.176;2023-11-19T09:20:27;16.00;99.90
24252;DHT22;12380;51.118;4.176;2023-11-19T09:22:53;15.90;99.90
24252;DHT22;12380;51.118;4.176;2023-11-19T09:25:19;15.40;99.90
24252;DHT22;12380;51.118;4.176;2023-11-19T09:27:45;15.30;99.90
24252;DHT22;12380;51.118;4.176;2023-11-19T09:30:10;15.00;99.90
24252;DHT22;12380;51.118;4.176;2023-11-19T09:32:38;14.80;99.90
24252;DHT22;12380;51.118;4.176;2023-11-19T09:35:04;14.50;99.90
24252;DHT22;12380;51.118;4.176;2023-11-19T09:37:32;14.40;99.90
24252;DHT22;12380;51.118;4.176;2023-11-19T09:39:58;14.10;99.90
24252;DHT22;12380;51.118;4.176;2023-11-19T09:42:26;13.90;99.90
24252;DHT22;12380;51.118;4.176;2023-11-19T09:44:52;14.00;99.90
24252;DHT22;12380;51.118;4.176;2023-11-19T09:47:18;14.50;99.90
24252;DHT22;12380;51.118;4.176;2023-11-19T09:49:44;14.30;99.90
24252;DHT22;12380;51.118;4.176;2023-11-19T09:52:10;14.10;99.90
24252;DHT22;12380;51.118;4.176;2023-11-19T09:54:35;13.70;99.90
24252;DHT22;12380;51.118;4.176;2023-11-19T09:57:01;14.00;99.90
24252;DHT22;12380;51.118;4.176;2023-11-19T09:59:31;14.60;99.90
24252;DHT22;12380;51.118;4.176;2023-11-19T10:01:57;15.20;99.90
24252;DHT22;12380;51.118;4.176;2023-11-19T10:04:22;14.80;99.90
24252;DHT22;12380;51.118;4.176;2023-11-19T10:06:52;14.50;99.90
24252;DHT22;12380;51.118;4.176;2023-11-19T10:09:18;14.50;99.90
24252;DHT22;12380;51.118;4.176;2023-11-19T10:11:44;15.10;99.90
24252;DHT22;12380;51.118;4.176;2023-11-19T10:14:09;15.30;99.90
24252;DHT22;12380;51.118;4.176;2023-11-19T10:16:35;14.90;99.90
24252;DHT22;12380;51.118;4.176;2023-11-19T10:19:01;14.70;99.90
24252;DHT22;12380;51.118;4.176;2023-11-19T10:21:26;14.70;99.90
24252;DHT22;12380;51.118;4.176;2023-11-19T10:23:56;14.30;99.90
24252;DHT22;12380;51.118;4.176;2023-11-19T10:26:23;14.00;99.90
24252;DHT22;12380;51.118;4.176;2023-11-19T10:28:49;13.80;99.90
24252;DHT22;12380;51.118;4.176;2023-11-19T10:31:15;13.80;99.90
24252;DHT22;12380;51.118;4.176;2023-11-19T10:33:42;13.70;99.90
24252;DHT22;12380;51.118;4.176;2023-11-19T10:36:13;13.60;99.90
24252;DHT22;12380;51.118;4.176;2023-11-19T10:38:40;13.70;99.90
24252;DHT22;12380;51.118;4.176;2023-11-19T10:41:06;14.00;99.90
24252;DHT22;12380;51.118;4.176;2023-11-19T10:43:43;13.90;99.90
24252;DHT22;12380;51.118;4.176;2023-11-19T10:46:12;14.10;99.90
24252;DHT22;12380;51.118;4.176;2023-11-19T10:48:38;14.00;99.90
24252;DHT22;12380;51.118;4.176;2023-11-19T10:51:05;14.00;99.90
24252;DHT22;12380;51.118;4.176;2023-11-19T10:53:33;14.30;99.90
24252;DHT22;12380;51.118;4.176;2023-11-19T10:56:01;14.30;99.90
24252;DHT22;12380;51.118;4.176;2023-11-19T10:58:28;14.00;99.90
24252;DHT22;12380;51.118;4.176;2023-11-19T11:00:54;13.90;99.90
24252;DHT22;12380;51.118;4.176;2023-11-19T11:03:24;14.00;99.90
24252;DHT22;12380;51.118;4.176;2023-11-19T11:05:53;14.20;99.90
24252;DHT22;12380;51.118;4.176;2023-11-19T11:08:19;14.40;99.90
24252;DHT22;12380;51.118;4.176;2023-11-19T11:10:58;14.60;99.90
24252;DHT22;12380;51.118;4.176;2023-11-19T11:13:26;15.00;99.90
24252;DHT22;12380;51.118;4.176;2023-11-19T11:15:57;15.30;99.90
24252;DHT22;12380;51.118;4.176;2023-11-19T11:18:26;15.40;99.90
24252;DHT22;12380;51.118;4.176;2023-11-19T11:20:55;15.40;99.90
24252;DHT22;12380;51.118;4.176;2023-11-19T11:23:37;15.30;99.90
24252;DHT22;12380;51.118;4.176;2023-11-19T11:39:39;16.20;99.90
24252;DHT22;12380;51.118;4.176;2023-11-19T11:47:25;15.10;99.90
24252;DHT22;12380;51.118;4.176;2023-11-19T11:49:51;14.80;99.90
24252;DHT22;12380;51.118;4.176;2023-11-19T11:52:19;14.60;99.90
24252;DHT22;12380;51.118;4.176;2023-11-19T11:54:45;14.40;99.90
24252;DHT22;12380;51.118;4.176;2023-11-19T11:57:12;14.40;99.90
24252;DHT22;12380;51.118;4.176;2023-11-19T12:02:20;13.80;99.90
24252;DHT22;12380;51.118;4.176;2023-11-19T12:04:50;13.50;99.90
24252;DHT22;12380;51.118;4.176;2023-11-19T12:07:23;13.40;99.90
24252;DHT22;12380;51.118;4.176;2023-11-19T12:10:07;13.30;99.90
24252;DHT22;12380;51.118;4.176;2023-11-19T12:12:34;13.20;99.90
24252;DHT22;12380;51.118;4.176;2023-11-19T12:15:01;13.20;99.90
24252;DHT22;12380;51.118;4.176;2023-11-19T12:20:05;13.00;99.90
24252;DHT22;12380;51.118;4.176;2023-11-19T12:22:35;12.90;99.90
24252;DHT22;12380;51.118;4.176;2023-11-19T12:25:01;12.90;99.90
24252;DHT22;12380;51.118;4.176;2023-11-19T12:27:27;13.00;99.90
24252;DHT22;12380;51.118;4.176;2023-11-19T12:29:53;13.10;99.90
24252;DHT22;12380;51.118;4.176;2023-11-19T12:32:19;13.10;99.90
24252;DHT22;12380;51.118;4.176;2023-11-19T12:34:45;13.40;99.90
24252;DHT22;12380;51.118;4.176;2023-11-19T12:37:10;13.70;99.90
24252;DHT22;12380;51.118;4.176;2023-11-19T12:39:36;14.00;99.90
24252;DHT22;12380;51.118;4.176;2023-11-19T12:42:01;14.00;99.90
24252;DHT22;12380;51.118;4.176;2023-11-19T12:44:27;14.00;99.90
24252;DHT22;12380;51.118;4.176;2023-11-19T12:47:00;13.90;99.90
24252;DHT22;12380;51.118;4.176;2023-11-19T12:49:26;14.00;99.90
24252;DHT22;12380;51.118;4.176;2023-11-19T12:51:52;14.00;99.90
24252;DHT22;12380;51.118;4.176;2023-11-19T12:54:17;14.00;99.90
24252;DHT22;12380;51.118;4.176;2023-11-19T12:56:53;13.80;99.90
24252;DHT22;12380;51.118;4.176;2023-11-19T12:59:18;13.60;99.90
24252;DHT22;12380;51.118;4.176;2023-11-19T13:04:39;13.30;99.90
24252;DHT22;12380;51.118;4.176;2023-11-19T13:07:08;13.20;99.90
24252;DHT22;12380;51.118;4.176;2023-11-19T13:09:33;13.20;99.90
24252;DHT22;12380;51.118;4.176;2023-11-19T13:11:59;13.00;99.90
24252;DHT22;12380;51.118;4.176;2023-11-19T13:14:44;12.80;99.90
24252;DHT22;12380;51.118;4.176;2023-11-19T13:17:14;12.80;99.90
24252;DHT22;12380;51.118;4.176;2023-11-19T13:19:40;12.90;99.90
24252;DHT22;12380;51.118;4.176;2023-11-19T13:22:06;12.90;99.90
24252;DHT22;12380;51.118;4.176;2023-11-19T13:24:31;13.00;99.90
24252;DHT22;12380;51.118;4.176;2023-11-19T13:26:57;13.10;99.90
24252;DHT22;12380;51.118;4.176;2023-11-19T13:29:25;13.30;99.90
24252;DHT22;12380;51.118;4.176;2023-11-19T13:31:50;13.40;99.90
24252;DHT22;12380;51.118;4.176;2023-11-19T13:34:19;13.50;99.90
24252;DHT22;12380;51.118;4.176;2023-11-19T13:36:44;13.50;99.90
24252;DHT22;12380;51.118;4.176;2023-11-19T13:39:10;13.40;99.90
24252;DHT22;12380;51.118;4.176;2023-11-19T13:41:37;13.30;99.90
24252;DHT22;12380;51.118;4.176;2023-11-19T13:44:03;13.30;99.90
24252;DHT22;12380;51.118;4.176;2023-11-19T13:46:28;13.40;99.90
24252;DHT22;12380;51.118;4.176;2023-11-19T13:48:55;13.30;99.90
24252;DHT22;12380;51.118;4.176;2023-11-19T13:51:21;13.20;99.90
24252;DHT22;12380;51.118;4.176;2023-11-19T13:53:47;13.10;99.90
24252;DHT22;12380;51.118;4.176;2023-11-19T13:56:12;13.10;99.90
24252;DHT22;12380;51.118;4.176;2023-11-19T13:58:38;13.20;99.90
24252;DHT22;12380;51.118;4.176;2023-11-19T14:01:08;13.30;99.90
24252;DHT22;12380;51.118;4.176;2023-11-19T14:03:33;13.30;99.90
24252;DHT22;12380;51.118;4.176;2023-11-19T14:05:59;13.10;99.90
24252;DHT22;12380;51.118;4.176;2023-11-19T14:08:26;13.10;99.90
24252;DHT22;12380;51.118;4.176;2023-11-19T14:10:51;13.20;99.90
24252;DHT22;12380;51.118;4.176;2023-11-19T14:13:17;13.00;99.90
24252;DHT22;12380;51.118;4.176;2023-11-19T14:15:45;13.00;99.90
24252;DHT22;12380;51.118;4.176;2023-11-19T14:18:10;12.90;99.90
24252;DHT22;12380;51.118;4.176;2023-11-19T14:20:36;12.80;99.90
24252;DHT22;12380;51.118;4.176;2023-11-19T14:23:05;12.90;99.90
24252;DHT22;12380;51.118;4.176;2023-11-19T14:25:31;12.70;99.90
24252;DHT22;12380;51.118;4.176;2023-11-19T14:27:56;12.70;99.90
24252;DHT22;12380;51.118;4.176;2023-11-19T14:30:24;12.60;99.90
24252;DHT22;12380;51.118;4.176;2023-11-19T14:32:50;12.60;99.90
24252;DHT22;12380;51.118;4.176;2023-11-19T14:35:15;12.50;99.90
24252;DHT22;12380;51.118;4.176;2023-11-19T14:37:41;12.50;99.90
24252;DHT22;12380;51.118;4.176;2023-11-19T14:40:09;12.60;99.90
24252;DHT22;12380;51.118;4.176;2023-11-19T14:42:36;12.70;99.90
24252;DHT22;12380;51.118;4.176;2023-11-19T14:45:02;12.60;99.90
24252;DHT22;12380;51.118;4.176;2023-11-19T14:47:28;12.50;99.90
24252;DHT22;12380;51.118;4.176;2023-11-19T14:49:54;12.40;99.90
24252;DHT22;12380;51.118;4.176;2023-11-19T14:52:22;12.40;99.90
24252;DHT22;12380;51.118;4.176;2023-11-19T14:54:48;12.40;99.90
24252;DHT22;12380;51.118;4.176;2023-11-19T14:57:19;12.50;99.90
24252;DHT22;12380;51.118;4.176;2023-11-19T14:59:44;12.20;99.90
24252;DHT22;12380;51.118;4.176;2023-11-19T15:02:11;12.30;99.90
24252;DHT22;12380;51.118;4.176;2023-11-19T15:04:36;12.50;99.90
24252;DHT22;12380;51.118;4.176;2023-11-19T15:07:06;12.50;99.90
24252;DHT22;12380;51.118;4.176;2023-11-19T15:09:32;12.50;99.90
24252;DHT22;12380;51.118;4.176;2023-11-19T15:11:58;12.60;99.90
24252;DHT22;12380;51.118;4.176;2023-11-19T15:14:25;12.60;99.90
24252;DHT22;12380;51.118;4.176;2023-11-19T15:16:51;12.70;99.90
24252;DHT22;12380;51.118;4.176;2023-11-19T15:19:17;12.90;99.90
24252;DHT22;12380;51.118;4.176;2023-11-19T15:21:42;12.80;99.90
24252;DHT22;12380;51.118;4.176;2023-11-19T15:24:10;12.70;99.90
24252;DHT22;12380;51.118;4.176;2023-11-19T15:26:36;12.70;99.90
24252;DHT22;12380;51.118;4.176;2023-11-19T15:29:02;12.70;99.90
24252;DHT22;12380;51.118;4.176;2023-11-19T15:31:28;12.70;99.90
24252;DHT22;12380;51.118;4.176;2023-11-19T15:33:54;12.60;99.90
24252;DHT22;12380;51.118;4.176;2023-11-19T15:36:19;12.60;99.90
24252;DHT22;12380;51.118;4.176;2023-11-19T15:38:45;12.70;99.90
24252;DHT22;12380;51.118;4.176;2023-11-19T15:41:11;12.50;99.90
24252;DHT22;12380;51.118;4.176;2023-11-19T15:43:39;12.40;99.90
24252;DHT22;12380;51.118;4.176;2023-11-19T15:46:11;12.60;99.90
24252;DHT22;12380;51.118;4.176;2023-11-19T15:48:36;12.50;99.90
24252;DHT22;12380;51.118;4.176;2023-11-19T15:51:04;12.40;99.90
24252;DHT22;12380;51.118;4.176;2023-11-19T15:53:30;12.30;99.90